Terminal Aerodrome Forecast
Issued by NWS

Home | Current Version | Previous Version | Text Only | Print | Product List | Glossary On
Versions: 1 2 3 4 5 6 7 8 9 10 11 12 13 14 15 16 17 18 19 20 21 22 23 24
000
FTAK31 PAFA 050527
TAFAFA
TAF
PAFA 050527Z 0506/0612 05008KT P6SM FEW080 BKN220
     FM050900 03003KT P6SM BKN220
     FM051900 VRB05KT P6SM BKN050 BKN100
     FM052200 33008KT P6SM BKN050 BKN100=

USA.gov is the U.S. government's official web portal to all federal, state and local government web resources and services.